createdAt,value
2019-06-10T00:00:13.534Z,40.52
2019-06-10T00:02:44.200Z,36.58
2019-06-10T00:05:16.580Z,37.38
2019-06-10T00:07:48.746Z,46.98
2019-06-10T00:10:21.462Z,51.30
2019-06-10T00:12:55.477Z,46.80
2019-06-10T00:15:27.704Z,50.12
2019-06-10T00:18:18.762Z,51.28
2019-06-10T00:20:35.215Z,54.88
2019-06-10T00:23:08.343Z,55.70
2019-06-10T00:25:41.315Z,57.98
2019-06-10T00:28:14.264Z,67.42
2019-06-10T00:30:46.444Z,56.80
2019-06-10T00:33:18.302Z,64.65
2019-06-10T00:35:52.201Z,68.10
2019-06-10T00:38:24.379Z,60.45
2019-06-10T00:40:56.622Z,58.00
2019-06-10T00:43:30.610Z,60.52
2019-06-10T00:46:04.159Z,55.30
2019-06-10T00:48:35.912Z,59.75
2019-06-10T00:51:08.859Z,59.30
2019-06-10T00:53:42.286Z,54.88
2019-06-10T00:56:14.555Z,58.83
2019-06-10T00:58:46.733Z,52.33
2019-06-10T01:01:18.674Z,51.48
2019-06-10T01:03:51.009Z,55.95
2019-06-10T01:06:23.234Z,60.08
2019-06-10T01:08:56.078Z,50.50
2019-06-10T01:11:30.846Z,55.25
2019-06-10T01:14:03.094Z,53.45
2019-06-10T01:16:35.284Z,54.42
2019-06-10T01:19:07.769Z,52.15
2019-06-10T01:21:41.543Z,48.02
2019-06-10T01:24:14.813Z,47.48
2019-06-10T01:26:47.583Z,40.28
2019-06-10T01:29:21.028Z,45.35
2019-06-10T01:31:53.608Z,49.05
2019-06-10T01:34:25.851Z,49.18
2019-06-10T01:36:57.943Z,42.27
2019-06-10T01:39:30.896Z,49.45
2019-06-10T01:42:03.309Z,51.33
2019-06-10T01:44:35.469Z,56.77
2019-06-10T01:47:08.801Z,46.98
2019-06-10T01:49:41.319Z,48.08
2019-06-10T01:52:15.128Z,50.70
2019-06-10T01:54:47.318Z,47.62
2019-06-10T01:57:21.836Z,42.05
2019-06-10T01:59:53.287Z,50.45
2019-06-10T02:02:26.071Z,45.40
2019-06-10T02:04:58.021Z,44.23
2019-06-10T02:07:31.961Z,52.93
2019-06-10T02:10:06.287Z,42.88
2019-06-10T02:12:38.423Z,43.58
2019-06-10T02:15:12.578Z,49.58
2019-06-10T02:17:45.112Z,41.48
2019-06-10T02:20:19.377Z,43.50
2019-06-10T02:22:51.660Z,46.13
2019-06-10T02:25:25.599Z,42.23
2019-06-10T02:27:58.284Z,38.67
2019-06-10T02:30:44.137Z,45.45
2019-06-10T02:33:04.338Z,40.30
2019-06-10T02:35:43.991Z,50.85
2019-06-10T02:38:16.797Z,43.33
2019-06-10T02:40:45.168Z,43.80
2019-06-10T02:43:23.818Z,35.23
2019-06-10T02:45:53.140Z,36.17
2019-06-10T02:48:30.377Z,27.98
2019-06-10T02:51:05.045Z,40.00
2019-06-10T02:53:39.027Z,36.05
2019-06-10T02:56:12.652Z,38.42
2019-06-10T02:58:45.271Z,34.95
2019-06-10T03:01:19.359Z,38.53
2019-06-10T03:03:54.101Z,31.68
2019-06-10T03:06:32.308Z,24.65
2019-06-10T03:08:58.462Z,21.25
2019-06-10T03:11:36.434Z,23.70
2019-06-10T03:14:05.124Z,20.00
2019-06-10T03:16:42.313Z,45.33
2019-06-10T03:19:13.346Z,47.70
2019-06-10T03:21:52.048Z,73.00
2019-06-10T03:24:25.297Z,68.53
2019-06-10T03:26:57.761Z,52.30
2019-06-10T03:29:29.825Z,39.18
2019-06-10T03:32:05.314Z,42.45
2019-06-10T03:34:41.643Z,35.08
2019-06-10T03:37:09.912Z,36.38
2019-06-10T03:39:42.750Z,27.70
2019-06-10T03:42:16.802Z,34.43
2019-06-10T03:44:49.049Z,33.67
2019-06-10T03:47:23.881Z,34.58
2019-06-10T03:49:56.459Z,54.83
2019-06-10T03:52:28.583Z,48.80
2019-06-10T03:55:02.997Z,54.70
2019-06-10T03:57:34.830Z,47.05
2019-06-10T04:00:11.411Z,48.68
2019-06-10T04:02:43.038Z,57.25
2019-06-10T04:05:14.954Z,45.38
2019-06-10T04:07:47.083Z,32.55
2019-06-10T04:10:23.979Z,32.98
2019-06-10T04:12:54.485Z,22.02
2019-06-10T04:15:28.321Z,20.88
2019-06-10T04:18:00.472Z,13.58
2019-06-10T04:20:33.199Z,21.17
2019-06-10T04:23:05.588Z,19.57
2019-06-10T04:25:42.621Z,20.15
2019-06-10T04:28:14.433Z,28.12
2019-06-10T04:30:46.311Z,23.67
2019-06-10T04:33:18.386Z,31.70
2019-06-10T04:35:51.947Z,37.70
2019-06-10T04:38:25.974Z,34.40
2019-06-10T04:40:59.454Z,42.55
2019-06-10T04:43:32.578Z,40.03
2019-06-10T04:46:05.034Z,46.30
2019-06-10T04:48:37.421Z,37.80
2019-06-10T04:51:09.487Z,36.77
2019-06-10T04:53:43.571Z,37.48
2019-06-10T04:56:15.671Z,35.45
2019-06-10T04:58:47.523Z,38.90
2019-06-10T05:01:19.476Z,37.30
2019-06-10T05:03:52.683Z,29.55
2019-06-10T05:06:26.881Z,31.93
2019-06-10T05:08:58.763Z,27.62
2019-06-10T05:11:33.106Z,32.00
2019-06-10T05:14:05.852Z,33.48
2019-06-10T05:16:38.122Z,36.30
2019-06-10T05:19:12.636Z,36.17
2019-06-10T05:21:44.094Z,43.02
2019-06-10T05:24:15.940Z,46.63
2019-06-10T05:26:47.917Z,43.28
2019-06-10T05:29:22.478Z,52.45
2019-06-10T05:31:54.098Z,49.30
2019-06-10T05:34:28.066Z,52.43
2019-06-10T05:36:59.862Z,57.17
2019-06-10T05:39:34.781Z,63.02
2019-06-10T05:42:05.816Z,49.05
2019-06-10T05:44:37.754Z,53.50
2019-06-10T05:47:09.681Z,47.85
2019-06-10T05:49:43.196Z,59.65
2019-06-10T05:52:15.100Z,66.87
2019-06-10T05:54:47.279Z,58.63
2019-06-10T05:57:19.664Z,58.65
2019-06-10T05:59:52.715Z,71.87
2019-06-10T06:02:25.763Z,72.32
2019-06-10T06:04:57.961Z,68.90
2019-06-10T06:07:31.062Z,65.10
2019-06-10T06:10:07.812Z,58.98
2019-06-10T06:12:42.251Z,57.40
2019-06-10T06:15:14.527Z,42.53
2019-06-10T06:17:46.580Z,34.78
2019-06-10T06:20:18.552Z,49.35
2019-06-10T06:22:52.289Z,33.18
2019-06-10T06:25:27.403Z,43.25
2019-06-10T06:27:59.177Z,39.85
2019-06-10T06:30:34.434Z,31.90
2019-06-10T06:33:05.362Z,29.25
2019-06-10T06:35:42.728Z,37.85
2019-06-10T06:38:12.887Z,28.85
2019-06-10T06:40:44.488Z,25.60
2019-06-10T06:43:16.533Z,25.00
2019-06-10T06:45:48.844Z,13.65
2019-06-10T06:48:22.726Z,11.73
2019-06-10T06:51:04.571Z,15.78
2019-06-10T06:53:35.231Z,18.40
2019-06-10T06:56:03.542Z,25.02
2019-06-10T06:58:37.373Z,21.82
2019-06-10T07:01:13.791Z,19.98
2019-06-10T07:03:45.225Z,24.80
2019-06-10T07:06:17.327Z,29.10
2019-06-10T07:09:01.507Z,28.95
2019-06-10T07:11:24.426Z,26.77
2019-06-10T07:13:56.314Z,24.27
2019-06-10T07:16:28.457Z,18.87
2019-06-10T07:19:02.603Z,17.32
2019-06-10T07:21:51.530Z,17.30
2019-06-10T07:24:07.830Z,22.73
2019-06-10T07:26:45.335Z,22.13
2019-06-10T07:29:13.374Z,23.50
2019-06-10T07:31:49.313Z,23.77
2019-06-10T07:34:19.393Z,23.27
2019-06-10T07:36:52.173Z,18.48
2019-06-10T07:39:24.273Z,21.50
2019-06-10T07:41:56.567Z,16.65
2019-06-10T07:44:28.436Z,19.98
2019-06-10T07:47:02.643Z,23.35
2019-06-10T07:49:35.334Z,11.78
2019-06-10T07:52:15.849Z,15.78
2019-06-10T07:54:43.716Z,14.75
2019-06-10T07:57:14.521Z,9.70
2019-06-10T07:59:46.826Z,14.15
2019-06-10T08:02:18.731Z,11.85
2019-06-10T08:04:53.901Z,14.28
2019-06-10T08:07:24.268Z,12.68
2019-06-10T08:09:56.267Z,13.53
2019-06-10T08:12:28.147Z,12.07
2019-06-10T08:15:02.571Z,14.15
2019-06-10T08:17:33.760Z,11.03
2019-06-10T08:20:06.000Z,10.03
2019-06-10T08:22:44.318Z,13.22
2019-06-10T08:25:14.726Z,16.23
2019-06-10T08:27:47.872Z,9.28
2019-06-10T08:30:23.966Z,9.40
2019-06-10T08:32:56.575Z,9.13
2019-06-10T08:35:39.488Z,9.70
2019-06-10T08:38:02.468Z,8.30
2019-06-10T08:40:38.285Z,6.08
2019-06-10T08:43:12.775Z,8.95
2019-06-10T08:45:46.736Z,14.28
2019-06-10T08:48:17.435Z,14.43
2019-06-10T08:50:53.119Z,13.65
2019-06-10T08:53:24.267Z,17.42
2019-06-10T08:55:57.151Z,5.78
2019-06-10T08:58:29.306Z,8.40
2019-06-10T09:01:02.286Z,5.20
2019-06-10T09:03:34.535Z,10.43
2019-06-10T09:06:06.516Z,13.45
2019-06-10T09:08:40.849Z,8.65
2019-06-10T09:11:12.944Z,10.90
2019-06-10T09:13:47.161Z,12.95
2019-06-10T09:16:19.576Z,10.15
2019-06-10T09:18:55.323Z,7.37
2019-06-10T09:21:26.291Z,10.55
2019-06-10T09:24:00.455Z,12.75
2019-06-10T09:26:33.740Z,8.95
2019-06-10T09:29:05.400Z,7.28
2019-06-10T09:31:37.486Z,7.83
2019-06-10T09:34:09.521Z,5.75
2019-06-10T09:36:46.610Z,7.25
2019-06-10T09:39:15.998Z,6.62
2019-06-10T09:41:56.643Z,7.70
2019-06-10T09:44:22.895Z,7.03
2019-06-10T09:46:56.470Z,11.28
2019-06-10T09:49:28.664Z,9.73
2019-06-10T09:52:03.365Z,9.80
2019-06-10T09:54:34.271Z,8.35
2019-06-10T09:57:06.170Z,8.85
2019-06-10T09:59:38.174Z,6.53
2019-06-10T10:02:12.471Z,6.25
2019-06-10T10:04:47.730Z,10.50
2019-06-10T10:07:17.114Z,7.00
2019-06-10T10:09:51.992Z,9.78
2019-06-10T10:12:22.828Z,6.85
2019-06-10T10:14:56.398Z,4.50
2019-06-10T10:17:28.501Z,6.55
2019-06-10T10:20:03.030Z,8.38
2019-06-10T10:22:34.243Z,12.47
2019-06-10T10:25:07.978Z,8.73
2019-06-10T10:27:40.065Z,7.87
2019-06-10T10:30:13.528Z,6.80
2019-06-10T10:32:47.606Z,10.90
2019-06-10T10:35:19.119Z,10.85
2019-06-10T10:37:53.861Z,9.30
2019-06-10T10:40:24.787Z,12.90
2019-06-10T10:43:16.210Z,7.33
2019-06-10T10:45:31.525Z,7.15
2019-06-10T10:48:03.571Z,8.93
2019-06-10T10:50:37.586Z,9.30
2019-06-10T10:53:09.784Z,8.93
2019-06-10T10:55:42.514Z,8.38
2019-06-10T10:58:15.266Z,10.25
2019-06-10T11:00:49.767Z,8.70
2019-06-10T11:03:22.859Z,11.50
2019-06-10T11:06:00.445Z,11.53
2019-06-10T11:08:27.968Z,5.62
2019-06-10T11:11:04.497Z,5.58
2019-06-10T11:13:37.638Z,4.50
2019-06-10T11:16:09.511Z,6.35
2019-06-10T11:18:42.276Z,7.85
2019-06-10T11:21:14.439Z,5.65
2019-06-10T11:23:48.001Z,6.05
2019-06-10T11:26:22.835Z,5.87
2019-06-10T11:28:55.802Z,18.82
2019-06-10T11:31:28.357Z,22.93
2019-06-10T11:34:00.203Z,26.68
2019-06-10T11:36:32.714Z,21.87
2019-06-10T11:39:07.322Z,10.88
2019-06-10T11:41:39.182Z,6.03
2019-06-10T11:44:11.959Z,10.53
2019-06-10T11:46:43.816Z,11.15
2019-06-10T11:49:15.953Z,11.80
2019-06-10T11:51:49.091Z,7.30
2019-06-10T11:54:24.023Z,12.23
2019-06-10T11:56:59.970Z,4.42
2019-06-10T11:59:33.992Z,6.58
2019-06-10T12:02:06.289Z,9.70
2019-06-10T12:04:41.280Z,7.40
2019-06-10T12:07:15.183Z,8.93
2019-06-10T12:09:48.927Z,8.70
2019-06-10T12:12:22.045Z,5.42
2019-06-10T12:14:57.566Z,8.00
2019-06-10T12:17:41.848Z,8.25
2019-06-10T12:20:03.323Z,13.10
2019-06-10T12:22:35.184Z,17.95
2019-06-10T12:25:28.465Z,10.23
2019-06-10T12:27:43.308Z,6.28
2019-06-10T12:30:16.465Z,8.38
2019-06-10T12:32:48.595Z,8.98
2019-06-10T12:35:23.007Z,4.67
2019-06-10T12:37:58.073Z,8.38
2019-06-10T12:40:28.215Z,6.35
2019-06-10T12:43:02.565Z,9.70
2019-06-10T12:45:35.854Z,5.42
2019-06-10T12:48:07.882Z,3.35
2019-06-10T12:50:42.881Z,5.75
2019-06-10T12:53:13.628Z,6.58
2019-06-10T12:55:47.075Z,4.85
2019-06-10T12:58:19.392Z,7.97
2019-06-10T13:00:53.801Z,5.37
2019-06-10T13:03:25.168Z,15.10
2019-06-10T13:05:59.593Z,7.33
2019-06-10T13:08:33.304Z,8.80
2019-06-10T13:11:05.250Z,16.02
2019-06-10T13:13:38.500Z,10.38
2019-06-10T13:16:13.912Z,7.58
2019-06-10T13:18:44.435Z,8.10
2019-06-10T13:21:17.737Z,8.15
2019-06-10T13:23:50.425Z,9.33
2019-06-10T13:26:24.479Z,3.95
2019-06-10T13:28:56.973Z,10.90
2019-06-10T13:31:28.937Z,6.90
2019-06-10T13:34:05.063Z,6.53
2019-06-10T13:36:35.811Z,10.15
2019-06-10T13:39:10.331Z,10.30
2019-06-10T13:41:43.746Z,10.32
2019-06-10T13:44:16.809Z,7.62
2019-06-10T13:46:49.131Z,9.38
2019-06-10T13:49:25.195Z,9.45
2019-06-10T13:51:55.185Z,6.37
2019-06-10T13:54:29.115Z,6.78
2019-06-10T13:57:03.696Z,6.10
2019-06-10T13:59:34.966Z,8.43
2019-06-10T14:02:10.014Z,7.33
2019-06-10T14:04:42.373Z,7.30
2019-06-10T14:07:17.310Z,7.58
2019-06-10T14:09:49.391Z,22.48
2019-06-10T14:12:23.142Z,11.33
2019-06-10T14:14:55.840Z,8.73
2019-06-10T14:17:28.222Z,6.58
2019-06-10T14:20:01.764Z,11.43
2019-06-10T14:22:34.015Z,9.75
2019-06-10T14:25:09.589Z,12.25
2019-06-10T14:27:43.505Z,12.28
2019-06-10T14:30:16.663Z,8.58
2019-06-10T14:32:48.832Z,7.30
2019-06-10T14:35:22.595Z,12.40
2019-06-10T14:37:54.265Z,6.83
2019-06-10T14:40:28.012Z,6.42
2019-06-10T14:43:00.244Z,10.95
2019-06-10T14:45:32.625Z,8.43
2019-06-10T14:48:04.986Z,5.95
2019-06-10T14:50:37.175Z,11.28
2019-06-10T14:53:09.302Z,9.18
2019-06-10T14:55:43.180Z,12.03
2019-06-10T14:58:18.645Z,8.65
2019-06-10T15:00:48.915Z,22.95
2019-06-10T15:03:21.024Z,14.55
2019-06-10T15:05:53.155Z,15.30
2019-06-10T15:08:27.043Z,20.70
2019-06-10T15:10:59.123Z,12.07
2019-06-10T15:13:32.771Z,18.95
2019-06-10T15:16:05.202Z,10.15
2019-06-10T15:18:38.834Z,11.05
2019-06-10T15:21:11.488Z,14.28
2019-06-10T15:23:43.415Z,13.43
2019-06-10T15:26:17.473Z,12.63
2019-06-10T15:28:48.958Z,7.35
2019-06-10T15:31:21.167Z,11.73
2019-06-10T15:33:54.471Z,8.70
2019-06-10T15:36:26.732Z,14.53
2019-06-10T15:38:58.670Z,13.72
2019-06-10T15:41:32.296Z,12.60
2019-06-10T15:44:04.361Z,11.08
2019-06-10T15:46:36.502Z,9.90
2019-06-10T15:49:08.468Z,15.90
2019-06-10T15:51:43.588Z,8.88
2019-06-10T15:54:18.968Z,12.90
2019-06-10T15:56:55.795Z,16.48
2019-06-10T15:59:22.831Z,14.35
2019-06-10T16:01:56.246Z,14.10
2019-06-10T16:04:29.844Z,15.98
2019-06-10T16:07:02.534Z,15.05
2019-06-10T16:09:34.840Z,10.05
2019-06-10T16:12:07.895Z,8.70
2019-06-10T16:14:42.344Z,10.48
2019-06-10T16:17:14.537Z,11.75
2019-06-10T16:19:47.898Z,16.85
2019-06-10T16:22:24.395Z,19.92
2019-06-10T16:24:53.452Z,11.55
2019-06-10T16:27:43.610Z,13.83
2019-06-10T16:29:59.121Z,23.30
2019-06-10T16:32:32.950Z,12.40
2019-06-10T16:35:06.786Z,18.82
2019-06-10T16:37:38.919Z,13.05
2019-06-10T16:40:12.289Z,11.35
2019-06-10T16:42:44.492Z,12.47
2019-06-10T16:45:19.815Z,18.67
2019-06-10T16:47:53.000Z,14.78
2019-06-10T16:50:26.953Z,13.53
2019-06-10T16:52:57.445Z,17.87
2019-06-10T16:55:30.392Z,21.48
2019-06-10T16:58:02.986Z,14.23
2019-06-10T17:00:35.091Z,9.95
2019-06-10T17:03:07.053Z,11.38
2019-06-10T17:05:39.519Z,10.60
2019-06-10T17:08:13.689Z,12.82
2019-06-10T17:10:45.738Z,19.00
2019-06-10T17:13:21.511Z,24.52
2019-06-10T17:15:55.346Z,21.60
2019-06-10T17:18:29.882Z,17.42
2019-06-10T17:21:03.391Z,17.42
2019-06-10T17:23:36.680Z,12.37
2019-06-10T17:26:08.869Z,12.82
2019-06-10T17:28:42.788Z,23.00
2019-06-10T17:31:14.693Z,18.32
2019-06-10T17:33:46.775Z,24.05
2019-06-10T17:36:19.974Z,27.02
2019-06-10T17:38:52.326Z,20.52
2019-06-10T17:41:27.197Z,29.35
2019-06-10T17:43:58.062Z,26.55
2019-06-10T17:46:31.029Z,24.10
2019-06-10T17:49:03.442Z,22.70
2019-06-10T17:51:35.810Z,13.35
2019-06-10T17:54:07.984Z,24.72
2019-06-10T17:56:42.471Z,21.17
2019-06-10T17:59:13.463Z,23.83
2019-06-10T18:01:46.471Z,22.13
2019-06-10T18:04:18.372Z,21.82
2019-06-10T18:06:52.776Z,23.52
2019-06-10T18:09:24.865Z,16.02
2019-06-10T18:11:57.764Z,20.32
2019-06-10T18:14:30.742Z,28.52
2019-06-10T18:17:03.600Z,21.80
2019-06-10T18:19:40.380Z,25.57
2019-06-10T18:22:12.627Z,22.02
2019-06-10T18:24:44.742Z,17.92
2019-06-10T18:27:16.816Z,20.02
2019-06-10T18:29:48.926Z,17.48
2019-06-10T18:32:22.835Z,19.65
2019-06-10T18:34:54.933Z,21.52
2019-06-10T18:37:27.955Z,21.10
2019-06-10T18:40:02.794Z,16.42
2019-06-10T18:42:36.104Z,23.32
2019-06-10T18:45:12.942Z,14.90
2019-06-10T18:47:44.609Z,13.72
2019-06-10T18:50:16.572Z,21.57
2019-06-10T18:52:48.455Z,15.83
2019-06-10T18:55:22.511Z,15.03
2019-06-10T18:57:54.194Z,19.73
2019-06-10T19:00:26.142Z,12.63
2019-06-10T19:03:10.407Z,16.65
2019-06-10T19:05:34.543Z,18.45
2019-06-10T19:08:06.852Z,13.85
2019-06-10T19:10:40.170Z,19.50
2019-06-10T19:13:13.022Z,19.90
2019-06-10T19:15:46.090Z,15.03
2019-06-10T19:18:18.050Z,10.85
2019-06-10T19:20:52.385Z,15.75
2019-06-10T19:23:23.863Z,10.95
2019-06-10T19:25:55.944Z,16.65
2019-06-10T19:28:27.936Z,18.12
2019-06-10T19:31:02.264Z,20.15
2019-06-10T19:33:35.888Z,22.98
2019-06-10T19:36:08.274Z,20.60
2019-06-10T19:38:42.886Z,15.10
2019-06-10T19:41:13.813Z,22.07
2019-06-10T19:43:45.774Z,18.30
2019-06-10T19:46:18.843Z,19.85
2019-06-10T19:49:02.349Z,22.20
2019-06-10T19:51:24.611Z,20.32
2019-06-10T19:53:56.524Z,23.60
2019-06-10T19:56:29.720Z,12.13
2019-06-10T19:59:01.625Z,18.70
2019-06-10T20:01:38.669Z,22.13
2019-06-10T20:04:15.804Z,24.60
2019-06-10T20:06:50.680Z,21.93
2019-06-10T20:09:22.654Z,16.85
2019-06-10T20:11:54.880Z,17.82
2019-06-10T20:14:26.962Z,17.95
2019-06-10T20:16:59.083Z,23.80
2019-06-10T20:19:32.652Z,24.15
2019-06-10T20:22:04.667Z,22.13
2019-06-10T20:24:36.702Z,17.73
2019-06-10T20:27:10.947Z,17.65
2019-06-10T20:29:45.339Z,21.45
2019-06-10T20:32:16.195Z,24.90
2019-06-10T20:34:49.613Z,22.73
2019-06-10T20:37:22.589Z,19.35
2019-06-10T20:39:55.896Z,24.07
2019-06-10T20:42:32.195Z,26.23
2019-06-10T20:45:04.994Z,24.20
2019-06-10T20:47:39.570Z,21.05
2019-06-10T20:50:13.103Z,26.17
2019-06-10T20:52:46.353Z,25.02
2019-06-10T20:55:18.764Z,22.58
2019-06-10T20:58:02.325Z,24.98
2019-06-10T21:00:37.037Z,22.77
2019-06-10T21:03:10.007Z,24.67
2019-06-10T21:05:45.662Z,25.68
2019-06-10T21:08:18.074Z,27.20
2019-06-10T21:10:51.326Z,24.92
2019-06-10T21:13:24.196Z,17.80
2019-06-10T21:15:59.297Z,18.12
2019-06-10T21:18:32.945Z,24.07
2019-06-10T21:21:05.170Z,25.92
2019-06-10T21:23:37.245Z,16.75
2019-06-10T21:26:09.266Z,28.70
2019-06-10T21:28:43.660Z,18.35
2019-06-10T21:31:16.433Z,20.90
2019-06-10T21:33:50.811Z,18.45
2019-06-10T21:36:23.236Z,18.23
2019-06-10T21:38:55.845Z,16.97
2019-06-10T21:41:27.898Z,15.80
2019-06-10T21:44:02.379Z,14.70
2019-06-10T21:46:33.362Z,14.63
2019-06-10T21:49:05.579Z,18.50
2019-06-10T21:51:37.566Z,11.88
2019-06-10T21:54:09.427Z,14.43
2019-06-10T21:56:44.216Z,16.30
2019-06-10T21:59:15.473Z,16.20
2019-06-10T22:01:47.576Z,16.02
2019-06-10T22:04:22.496Z,19.65
2019-06-10T22:06:55.985Z,15.20
2019-06-10T22:09:27.012Z,25.17
2019-06-10T22:11:59.096Z,24.67
2019-06-10T22:14:32.972Z,24.80
2019-06-10T22:17:04.866Z,22.17
2019-06-10T22:19:36.722Z,18.73
2019-06-10T22:22:12.837Z,21.60
2019-06-10T22:24:42.695Z,17.23
2019-06-10T22:27:16.012Z,18.95
2019-06-10T22:29:49.111Z,18.85
2019-06-10T22:32:22.494Z,19.50
2019-06-10T22:34:55.836Z,21.95
2019-06-10T22:37:28.053Z,18.48
2019-06-10T22:40:03.069Z,15.23
2019-06-10T22:42:33.764Z,25.25
2019-06-10T22:45:08.839Z,20.72
2019-06-10T22:47:42.653Z,15.80
2019-06-10T22:50:14.658Z,19.70
2019-06-10T22:52:47.211Z,16.48
2019-06-10T22:55:20.285Z,15.15
2019-06-10T22:57:57.275Z,20.80
2019-06-10T23:00:25.837Z,16.90
2019-06-10T23:02:59.195Z,22.62
2019-06-10T23:05:33.269Z,20.08
2019-06-10T23:08:06.360Z,18.00
2019-06-10T23:10:38.263Z,15.72
2019-06-10T23:13:12.783Z,17.48
2019-06-10T23:15:44.368Z,15.32
2019-06-10T23:18:18.279Z,19.75
2019-06-10T23:20:52.046Z,19.00
2019-06-10T23:23:24.243Z,18.62
2019-06-10T23:25:56.397Z,20.10
2019-06-10T23:28:28.485Z,17.07
2019-06-10T23:31:01.723Z,16.55
2019-06-10T23:33:33.966Z,15.58
2019-06-10T23:36:06.001Z,18.57
2019-06-10T23:38:38.176Z,24.12
2019-06-10T23:41:10.348Z,20.80
2019-06-10T23:43:42.431Z,19.70
2019-06-10T23:46:15.429Z,16.02
2019-06-10T23:48:47.990Z,19.40
2019-06-10T23:51:19.987Z,18.62
2019-06-10T23:53:56.343Z,31.25
2019-06-10T23:56:25.777Z,27.02
2019-06-10T23:58:58.608Z,27.85
